Time;durP1;ratioP1;P1;durP2;ratioP2;P2;SDS_P1;SDS_P2;PMS_P1;PMS_P2;Temp;Humidity;BMP_temperature;BMP_pressure;BME280_temperature;BME280_humidity;BME280_pressure;Samples;Min_cycle;Max_cycle;Signal;HPM_P1;HPM_P2
2021/06/03 00:01:30;;;;;;;18.27;9.68;;;;;14.50;100717.00;;;;5063057;28;20028;-74
2021/06/03 00:03:57;;;;;;;16.42;8.43;;;;;14.50;100718.00;;;;5067184;28;20090;-73
2021/06/03 00:06:23;;;;;;;13.65;8.65;;;;;14.40;100709.00;;;;5066423;28;20548;-72
2021/06/03 00:08:50;;;;;;;11.27;7.60;;;;;14.40;100704.00;;;;5066140;28;20113;-72
2021/06/03 00:11:16;;;;;;;16.23;9.70;;;;;14.30;100696.00;;;;5048099;28;20040;-73
2021/06/03 00:13:49;;;;;;;14.73;10.25;;;;;14.20;100696.00;;;;5066772;28;20028;-73
2021/06/03 00:16:17;;;;;;;15.80;7.63;;;;;14.20;100700.00;;;;5066125;28;20024;-73
2021/06/03 00:18:45;;;;;;;12.63;7.15;;;;;14.10;100679.00;;;;5066307;28;20506;-70
2021/06/03 00:21:13;;;;;;;11.70;6.38;;;;;14.00;100668.00;;;;5066792;28;20036;-74
2021/06/03 00:23:39;;;;;;;14.55;7.18;;;;;13.80;100677.00;;;;5066823;28;20028;-73
2021/06/03 00:26:06;;;;;;;10.43;6.47;;;;;13.80;100676.00;;;;5066652;28;20518;-74
2021/06/03 00:28:33;;;;;;;17.10;6.80;;;;;13.70;100663.00;;;;5066991;28;20055;-73
2021/06/03 00:31:00;;;;;;;13.95;6.88;;;;;13.70;100671.00;;;;5065362;28;20067;-73
2021/06/03 00:33:26;;;;;;;21.17;7.68;;;;;13.60;100676.00;;;;5066274;28;20032;-74
2021/06/03 00:35:53;;;;;;;17.55;7.13;;;;;13.50;100685.00;;;;5066730;28;20024;-71
2021/06/03 00:38:19;;;;;;;8.45;6.70;;;;;13.50;100705.00;;;;5066875;28;20056;-73
2021/06/03 00:40:46;;;;;;;7.90;5.78;;;;;13.40;100715.00;;;;5066324;28;20028;-70
2021/06/03 00:43:13;;;;;;;8.98;5.32;;;;;13.40;100715.00;;;;5065768;28;20052;-71
2021/06/03 00:45:40;;;;;;;8.48;4.68;;;;;13.40;100697.00;;;;5064792;28;20028;-74
2021/06/03 00:48:08;;;;;;;7.72;4.25;;;;;13.30;100681.00;;;;5065075;28;20044;-73
2021/06/03 00:50:40;;;;;;;5.72;4.20;;;;;13.20;100689.00;;;;5065222;28;20040;-72
2021/06/03 00:53:10;;;;;;;5.55;4.22;;;;;13.10;100700.00;;;;5065819;28;20024;-73
2021/06/03 00:55:38;;;;;;;6.30;3.85;;;;;13.00;100695.00;;;;5065488;28;20041;-74
2021/06/03 00:58:05;;;;;;;8.18;3.97;;;;;13.00;100693.00;;;;5065034;28;20024;-75
2021/06/03 01:00:32;;;;;;;7.88;4.18;;;;;13.00;100720.00;;;;5065270;28;20039;-73
2021/06/03 01:02:59;;;;;;;4.53;3.83;;;;;12.90;100731.00;;;;5065900;28;20033;-72
2021/06/03 01:05:28;;;;;;;9.48;4.18;;;;;12.90;100725.00;;;;5065741;28;20025;-72
2021/06/03 01:07:58;;;;;;;11.20;4.60;;;;;12.80;100744.00;;;;5065782;28;20028;-73
2021/06/03 01:10:53;;;;;;;9.85;4.28;;;;;12.70;100752.00;;;;5065168;28;20032;-70
2021/06/03 01:13:20;;;;;;;7.70;4.78;;;;;12.60;100749.00;;;;5064507;28;20078;-72
2021/06/03 01:15:48;;;;;;;9.98;4.75;;;;;12.60;100751.00;;;;5065132;28;20029;-72
2021/06/03 01:18:17;;;;;;;9.07;4.40;;;;;12.60;100748.00;;;;5065215;28;20028;-73
2021/06/03 01:20:46;;;;;;;16.42;4.57;;;;;12.50;100763.00;;;;5066218;28;20491;-72
2021/06/03 01:23:44;;;;;;;10.77;4.13;;;;;12.50;100763.00;;;;5065139;28;20123;-72
2021/06/03 01:26:11;;;;;;;10.38;3.78;;;;;12.50;100770.00;;;;5064665;28;20067;-70
2021/06/03 01:28:39;;;;;;;8.35;4.78;;;;;12.40;100771.00;;;;5064948;28;20056;-72
2021/06/03 01:31:07;;;;;;;5.22;3.97;;;;;12.30;100787.00;;;;5065536;28;20388;-72
2021/06/03 01:33:40;;;;;;;5.75;3.65;;;;;12.30;100776.00;;;;5064120;28;20111;-73
2021/06/03 01:36:13;;;;;;;6.15;3.80;;;;;12.30;100787.00;;;;5064962;28;20025;-72
2021/06/03 01:38:41;;;;;;;8.85;3.55;;;;;12.30;100792.00;;;;5065267;28;20027;-71
2021/06/03 01:41:10;;;;;;;8.27;4.45;;;;;12.30;100810.00;;;;5065160;28;20037;-72
2021/06/03 01:43:40;;;;;;;7.80;3.83;;;;;12.40;100806.00;;;;5064756;28;20403;-72
2021/06/03 01:46:08;;;;;;;5.93;4.53;;;;;12.20;100809.00;;;;5065148;28;20020;-73
2021/06/03 01:48:35;;;;;;;11.27;4.43;;;;;12.20;100836.00;;;;5065215;28;20021;-73
2021/06/03 01:51:08;;;;;;;8.95;5.10;;;;;12.10;100815.00;;;;5064873;28;20036;-72
2021/06/03 01:53:35;;;;;;;6.65;5.15;;;;;12.20;100844.00;;;;5064283;28;20400;-73
2021/06/03 01:56:05;;;;;;;7.60;4.57;;;;;12.20;100824.00;;;;5064973;28;20662;-73
2021/06/03 01:58:32;;;;;;;7.13;4.57;;;;;12.20;100838.00;;;;5046735;28;20059;-71
2021/06/03 02:01:00;;;;;;;9.68;4.28;;;;;12.20;100847.00;;;;5064703;28;20797;-71
2021/06/03 02:03:27;;;;;;;8.23;4.88;;;;;12.20;100853.00;;;;5063969;28;20111;-72
2021/06/03 02:05:55;;;;;;;8.45;5.13;;;;;12.10;100858.00;;;;5065250;28;20035;-72
2021/06/03 02:08:22;;;;;;;13.02;5.65;;;;;12.00;100853.00;;;;5064253;28;20024;-72
2021/06/03 02:10:49;;;;;;;14.48;5.32;;;;;12.00;100875.00;;;;5064205;28;20045;-74
2021/06/03 02:13:25;;;;;;;6.53;4.53;;;;;12.10;100857.00;;;;5064556;28;20046;-74
2021/06/03 02:16:00;;;;;;;8.05;5.05;;;;;12.10;100866.00;;;;5065160;28;20029;-72
2021/06/03 02:18:44;;;;;;;13.57;5.60;;;;;12.10;100869.00;;;;5064077;28;20491;-72
2021/06/03 02:21:11;;;;;;;12.70;6.07;;;;;12.10;100874.00;;;;5065342;28;20024;-73
2021/06/03 02:23:38;;;;;;;14.60;6.50;;;;;12.00;100871.00;;;;5064157;28;20767;-73
2021/06/03 02:26:05;;;;;;;15.45;6.32;;;;;11.90;100874.00;;;;5064382;28;20119;-71
2021/06/03 02:28:32;;;;;;;11.13;6.18;;;;;11.80;100884.00;;;;5064116;28;20090;-71
2021/06/03 02:31:00;;;;;;;14.88;8.90;;;;;11.80;100883.00;;;;5071669;28;20029;-73
2021/06/03 02:33:28;;;;;;;12.02;6.93;;;;;11.80;100863.00;;;;5069011;28;20395;-74
2021/06/03 02:35:55;;;;;;;15.30;7.60;;;;;11.80;100868.00;;;;5063533;28;20036;-73
2021/06/03 02:38:31;;;;;;;11.80;6.18;;;;;11.90;100856.00;;;;5063927;28;20032;-72
2021/06/03 02:41:05;;;;;;;13.05;5.35;;;;;11.90;100876.00;;;;5063839;28;20028;-71
2021/06/03 02:43:32;;;;;;;8.25;5.40;;;;;12.00;100875.00;;;;5063430;28;20403;-74
2021/06/03 02:46:00;;;;;;;9.65;5.20;;;;;12.00;100893.00;;;;5063829;28;20095;-72
2021/06/03 02:48:27;;;;;;;7.85;4.70;;;;;12.00;100893.00;;;;5064583;28;20492;-72
2021/06/03 02:50:54;;;;;;;9.18;4.70;;;;;12.00;100889.00;;;;5063453;28;20039;-72
2021/06/03 02:53:21;;;;;;;6.68;5.18;;;;;12.10;100886.00;;;;5064319;28;20077;-73
2021/06/03 02:55:47;;;;;;;11.40;4.80;;;;;12.10;100907.00;;;;5064500;28;20032;-72
2021/06/03 02:58:15;;;;;;;15.82;4.80;;;;;12.10;100898.00;;;;5063261;28;20074;-73
2021/06/03 03:00:42;;;;;;;11.80;6.50;;;;;12.10;100905.00;;;;5063627;28;20032;-73
2021/06/03 03:03:10;;;;;;;15.13;6.07;;;;;12.20;100884.00;;;;5063986;28;20032;-72
2021/06/03 03:05:41;;;;;;;15.48;7.93;;;;;12.10;100895.00;;;;5063580;28;20465;-72
2021/06/03 03:08:08;;;;;;;19.48;7.38;;;;;12.00;100896.00;;;;5064049;28;20036;-73
2021/06/03 03:10:40;;;;;;;13.98;6.95;;;;;12.00;100912.00;;;;5064032;28;20064;-71
2021/06/03 03:13:08;;;;;;;16.33;8.65;;;;;12.00;100914.00;;;;5064141;28;20024;-74
2021/06/03 03:15:35;;;;;;;13.45;7.18;;;;;11.90;100905.00;;;;5063222;28;20458;-74
2021/06/03 03:18:03;;;;;;;14.90;8.77;;;;;12.00;100897.00;;;;5063713;28;20030;-72
2021/06/03 03:20:30;;;;;;;11.70;6.97;;;;;11.90;100915.00;;;;5063252;28;20484;-72
2021/06/03 03:22:57;;;;;;;10.73;5.47;;;;;11.90;100907.00;;;;5064216;28;20032;-73
2021/06/03 03:25:25;;;;;;;8.95;4.57;;;;;11.80;100886.00;;;;5062978;28;20746;-72
2021/06/03 03:27:53;;;;;;;11.25;4.13;;;;;11.80;100879.00;;;;5063636;28;20052;-72
2021/06/03 03:30:22;;;;;;;6.97;3.63;;;;;11.70;100903.00;;;;5062701;28;20389;-72
2021/06/03 03:32:49;;;;;;;10.20;4.65;;;;;11.70;100894.00;;;;5063211;28;20041;-73
2021/06/03 03:35:15;;;;;;;12.80;4.72;;;;;11.70;100896.00;;;;5063286;28;20039;-72
2021/06/03 03:37:44;;;;;;;9.30;4.97;;;;;11.60;100880.00;;;;5066901;28;20111;-71
2021/06/03 03:40:15;;;;;;;7.80;4.90;;;;;11.50;100888.00;;;;5067444;28;20032;-73
2021/06/03 03:42:42;;;;;;;11.63;4.82;;;;;11.40;100890.00;;;;5067028;28;20036;-73
2021/06/03 03:45:11;;;;;;;11.90;5.20;;;;;11.40;100903.00;;;;5067609;28;20063;-73
2021/06/03 03:47:38;;;;;;;6.20;4.35;;;;;11.40;100894.00;;;;5067193;28;20039;-73
2021/06/03 03:50:07;;;;;;;9.57;5.40;;;;;11.30;100899.00;;;;5066663;28;20590;-73
2021/06/03 03:52:34;;;;;;;10.68;5.97;;;;;11.20;100907.00;;;;5048833;28;20499;-72
2021/06/03 03:55:01;;;;;;;10.00;5.10;;;;;11.20;100893.00;;;;5067366;28;20032;-72
2021/06/03 03:57:28;;;;;;;9.50;4.50;;;;;11.20;100877.00;;;;5066067;28;20029;-72
2021/06/03 03:59:55;;;;;;;12.90;4.45;;;;;11.10;100892.00;;;;5067617;28;20893;-73
2021/06/03 04:02:21;;;;;;;11.32;5.45;;;;;11.10;100885.00;;;;5067094;28;20553;-71
2021/06/03 04:04:48;;;;;;;12.68;5.07;;;;;11.20;100883.00;;;;5067416;28;20111;-73
2021/06/03 04:07:15;;;;;;;11.65;4.93;;;;;11.20;100890.00;;;;5065925;28;20060;-72
2021/06/03 04:09:42;;;;;;;12.98;6.20;;;;;11.10;100890.00;;;;5066818;28;20398;-72
2021/06/03 04:12:09;;;;;;;8.88;4.43;;;;;11.00;100890.00;;;;5066117;28;20040;-72
2021/06/03 04:14:36;;;;;;;12.07;4.40;;;;;11.00;100889.00;;;;5066589;28;20021;-71
2021/06/03 04:17:03;;;;;;;10.45;4.13;;;;;11.00;100873.00;;;;5066025;28;20033;-72
2021/06/03 04:19:30;;;;;;;8.15;4.05;;;;;10.90;100895.00;;;;5048282;28;20033;-73
2021/06/03 04:21:58;;;;;;;7.13;4.07;;;;;10.80;100889.00;;;;5066616;28;20028;-73
2021/06/03 04:24:26;;;;;;;6.82;3.80;;;;;10.80;100884.00;;;;5065975;28;20024;-71
2021/06/03 04:26:52;;;;;;;8.90;3.80;;;;;10.90;100887.00;;;;5066399;28;20025;-72
2021/06/03 04:29:19;;;;;;;9.10;3.90;;;;;10.90;100898.00;;;;5066670;28;20577;-72
2021/06/03 04:31:46;;;;;;;6.95;3.40;;;;;10.90;100873.00;;;;5066504;28;20492;-71
2021/06/03 04:34:12;;;;;;;8.18;3.65;;;;;10.80;100884.00;;;;5066062;28;20052;-73
2021/06/03 04:36:39;;;;;;;5.63;3.80;;;;;10.70;100870.00;;;;5065713;28;20403;-73
2021/06/03 04:39:05;;;;;;;7.95;3.72;;;;;10.60;100855.00;;;;5065899;28;20024;-73
2021/06/03 04:41:32;;;;;;;4.40;3.30;;;;;10.50;100860.00;;;;5065899;28;20024;-72
2021/06/03 04:43:59;;;;;;;7.63;4.05;;;;;10.40;100860.00;;;;5065554;28;20457;-73
2021/06/03 04:46:25;;;;;;;5.80;3.40;;;;;10.40;100868.00;;;;5066251;28;20028;-73
2021/06/03 04:48:52;;;;;;;7.10;3.50;;;;;10.40;100861.00;;;;5065370;28;20418;-70
2021/06/03 04:51:18;;;;;;;6.80;3.78;;;;;10.40;100870.00;;;;5065874;28;20037;-72
2021/06/03 04:53:45;;;;;;;5.50;3.67;;;;;10.30;100855.00;;;;5048139;28;20032;-72
2021/06/03 04:56:11;;;;;;;11.18;3.83;;;;;10.30;100860.00;;;;5065895;28;20082;-71
2021/06/03 04:58:38;;;;;;;5.63;3.30;;;;;10.30;100876.00;;;;5065334;28;20056;-72
2021/06/03 05:01:04;;;;;;;6.60;3.53;;;;;10.20;100873.00;;;;5065660;28;20495;-73
2021/06/03 05:03:31;;;;;;;8.80;3.90;;;;;10.20;100869.00;;;;5065918;28;20119;-72
2021/06/03 05:05:58;;;;;;;11.20;3.67;;;;;10.10;100868.00;;;;5065320;28;20043;-72
2021/06/03 05:08:24;;;;;;;9.48;4.03;;;;;10.10;100854.00;;;;5065535;28;20024;-72
2021/06/03 05:10:51;;;;;;;7.30;3.78;;;;;10.10;100816.00;;;;5065361;28;20072;-72
2021/06/03 05:13:18;;;;;;;4.50;3.53;;;;;10.10;100819.00;;;;5071809;28;20027;-73
2021/06/03 05:15:44;;;;;;;6.57;3.30;;;;;10.10;100834.00;;;;5073335;28;20403;-73
2021/06/03 05:18:11;;;;;;;6.57;2.60;;;;;10.00;100828.00;;;;5066093;28;20053;-73
2021/06/03 05:20:37;;;;;;;7.03;3.08;;;;;10.00;100834.00;;;;5065544;28;20038;-71
2021/06/03 05:23:04;;;;;;;6.55;3.78;;;;;10.00;100832.00;;;;5065387;28;20035;-72
2021/06/03 05:25:32;;;;;;;7.40;3.42;;;;;10.00;100839.00;;;;5065373;28;20100;-72
2021/06/03 05:27:59;;;;;;;6.85;3.47;;;;;9.90;100816.00;;;;5065286;28;20048;-72
2021/06/03 05:30:26;;;;;;;6.38;3.28;;;;;9.90;100844.00;;;;5064801;28;20032;-72
2021/06/03 05:32:53;;;;;;;9.68;3.88;;;;;9.80;100827.00;;;;5064516;28;20102;-70
2021/06/03 05:35:22;;;;;;;8.80;4.55;;;;;9.90;100829.00;;;;5065298;28;20409;-73
2021/06/03 05:37:49;;;;;;;12.35;6.55;;;;;9.90;100831.00;;;;5065426;28;20045;-73
2021/06/03 05:40:19;;;;;;;19.90;9.85;;;;;9.80;100818.00;;;;5064902;28;20028;-71
2021/06/03 05:42:47;;;;;;;16.13;6.88;;;;;9.80;100822.00;;;;5065033;28;20404;-71
2021/06/03 05:45:15;;;;;;;8.07;5.05;;;;;9.70;100806.00;;;;5065538;28;20051;-73
2021/06/03 05:47:43;;;;;;;9.63;5.00;;;;;9.80;100778.00;;;;5064777;28;20025;-71
2021/06/03 05:50:12;;;;;;;11.60;5.85;;;;;9.90;100815.00;;;;5064555;28;20082;-73
2021/06/03 05:52:40;;;;;;;13.65;5.38;;;;;9.90;100791.00;;;;5064737;28;20509;-72
2021/06/03 05:55:09;;;;;;;9.15;5.07;;;;;9.90;100807.00;;;;5063863;28;20139;-72
2021/06/03 05:57:36;;;;;;;10.93;5.50;;;;;9.80;100802.00;;;;5064358;28;20025;-73
2021/06/03 06:00:08;;;;;;;10.95;6.28;;;;;9.80;100801.00;;;;5064098;28;20032;-72
2021/06/03 06:02:48;;;;;;;16.00;8.45;;;;;9.80;100808.00;;;;5030488;28;20742;-71
2021/06/03 06:08:03;;;;;;;13.50;7.15;;;;;9.80;100822.00;;;;5065611;28;20158;-71
2021/06/03 06:10:30;;;;;;;15.65;6.78;;;;;9.80;100825.00;;;;5064792;28;20129;-73
2021/06/03 06:12:57;;;;;;;9.18;4.95;;;;;9.80;100816.00;;;;5064709;28;20162;-73
2021/06/03 06:15:25;;;;;;;8.30;5.50;;;;;9.80;100820.00;;;;5063956;28;20020;-73
2021/06/03 06:17:52;;;;;;;19.83;7.25;;;;;9.80;100817.00;;;;5064656;28;20170;-73
2021/06/03 06:20:19;;;;;;;18.63;8.13;;;;;9.80;100817.00;;;;5064082;28;20040;-71
2021/06/03 06:22:46;;;;;;;19.52;7.47;;;;;9.80;100803.00;;;;5063866;28;20774;-71
2021/06/03 06:25:13;;;;;;;16.15;5.57;;;;;9.80;100803.00;;;;5046119;28;20024;-73
2021/06/03 06:27:40;;;;;;;12.30;5.10;;;;;9.80;100800.00;;;;5063643;28;20048;-72
2021/06/03 06:30:09;;;;;;;11.02;4.72;;;;;9.80;100808.00;;;;5063435;28;20082;-71
2021/06/03 06:32:37;;;;;;;6.95;4.60;;;;;9.70;100795.00;;;;5046398;28;20472;-72
2021/06/03 06:35:05;;;;;;;6.97;4.15;;;;;9.60;100801.00;;;;5064653;28;20021;-72
2021/06/03 06:37:31;;;;;;;8.77;4.30;;;;;9.70;100799.00;;;;5064311;28;20024;-71
2021/06/03 06:39:58;;;;;;;8.70;3.60;;;;;9.70;100780.00;;;;5063619;28;20496;-73
2021/06/03 06:42:26;;;;;;;12.07;3.78;;;;;9.70;100792.00;;;;5064132;28;20491;-71
2021/06/03 06:44:52;;;;;;;4.95;3.45;;;;;9.70;100797.00;;;;5063674;28;20442;-70
2021/06/03 06:47:19;;;;;;;6.63;3.35;;;;;9.70;100797.00;;;;5063993;28;20035;-71
2021/06/03 06:49:45;;;;;;;10.32;3.97;;;;;9.50;100796.00;;;;5063980;28;20034;-73
2021/06/03 06:52:12;;;;;;;11.52;4.78;;;;;9.50;100803.00;;;;5063462;28;20479;-73
2021/06/03 06:54:39;;;;;;;6.18;4.20;;;;;9.70;100815.00;;;;5063850;28;20036;-72
2021/06/03 06:57:06;;;;;;;7.07;4.40;;;;;9.40;100801.00;;;;5063812;28;20056;-72
2021/06/03 06:59:33;;;;;;;12.20;3.78;;;;;9.40;100813.00;;;;5064096;28;20566;-73
2021/06/03 07:02:00;;;;;;;9.45;4.70;;;;;9.40;100812.00;;;;5064038;28;20028;-73
2021/06/03 07:04:28;;;;;;;6.68;4.03;;;;;9.50;100828.00;;;;5063597;28;20103;-73
2021/06/03 07:06:56;;;;;;;5.47;3.78;;;;;9.50;100816.00;;;;5063485;28;20097;-72
2021/06/03 07:09:23;;;;;;;6.65;4.05;;;;;9.50;100811.00;;;;5063791;28;20036;-72
2021/06/03 07:11:50;;;;;;;5.28;3.60;;;;;9.40;100846.00;;;;5065035;28;20044;-72
2021/06/03 07:14:16;;;;;;;6.97;4.38;;;;;9.20;100836.00;;;;5068143;28;20032;-73
2021/06/03 07:16:43;;;;;;;7.25;4.20;;;;;9.30;100843.00;;;;5067218;28;20064;-71
2021/06/03 07:19:09;;;;;;;7.07;5.63;;;;;9.30;100852.00;;;;5067494;28;20047;-73
2021/06/03 07:21:36;;;;;;;8.77;4.38;;;;;9.30;100850.00;;;;5067306;28;20060;-71
2021/06/03 07:24:03;;;;;;;8.65;5.80;;;;;9.20;100862.00;;;;5067239;28;20021;-73
2021/06/03 07:26:29;;;;;;;11.57;5.40;;;;;9.30;100878.00;;;;5067963;28;20111;-71
2021/06/03 07:29:01;;;;;;;10.65;5.38;;;;;9.40;100885.00;;;;5067713;28;20047;-70
2021/06/03 07:31:28;;;;;;;15.27;6.00;;;;;9.50;100874.00;;;;5068152;28;20029;-73
2021/06/03 07:33:56;;;;;;;7.63;5.20;;;;;9.50;100894.00;;;;5066798;28;20036;-72
2021/06/03 07:36:22;;;;;;;13.38;5.38;;;;;9.50;100912.00;;;;5066858;28;20035;-72
2021/06/03 07:38:49;;;;;;;10.85;5.63;;;;;9.50;100911.00;;;;5067406;28;20500;-70
2021/06/03 07:41:16;;;;;;;6.35;5.50;;;;;9.50;100900.00;;;;5067736;28;20035;-71
2021/06/03 07:43:42;;;;;;;8.75;5.93;;;;;9.50;100924.00;;;;5049582;28;20124;-70
2021/06/03 07:46:12;;;;;;;13.25;5.53;;;;;9.50;100932.00;;;;5067156;28;20107;-70
2021/06/03 07:48:38;;;;;;;11.18;5.88;;;;;9.40;100927.00;;;;5066383;28;20115;-72
2021/06/03 07:51:06;;;;;;;6.53;5.53;;;;;9.30;100929.00;;;;5067559;28;20025;-72
2021/06/03 07:53:33;;;;;;;6.63;5.07;;;;;9.20;100941.00;;;;5071913;28;20033;-73
2021/06/03 07:55:59;;;;;;;10.00;6.13;;;;;9.30;100925.00;;;;5074507;28;20033;-71
2021/06/03 07:58:26;;;;;;;6.22;5.63;;;;;9.30;100936.00;;;;5067624;28;20501;-71
2021/06/03 08:00:52;;;;;;;8.07;5.95;;;;;9.40;100928.00;;;;5067728;28;20545;-72
2021/06/03 08:03:19;;;;;;;11.65;7.97;;;;;9.20;100939.00;;;;5067506;28;20060;-73
2021/06/03 08:05:46;;;;;;;8.65;5.90;;;;;9.20;100951.00;;;;5067397;28;20024;-71
2021/06/03 08:08:12;;;;;;;10.02;6.50;;;;;9.40;100957.00;;;;5067013;28;20458;-72
2021/06/03 08:10:43;;;;;;;11.23;7.68;;;;;9.30;100950.00;;;;5066644;28;20514;-71
2021/06/03 08:13:11;;;;;;;8.77;6.70;;;;;9.20;100958.00;;;;5067043;28;20679;-73
2021/06/03 08:15:40;;;;;;;8.18;6.47;;;;;9.30;100975.00;;;;5067294;28;20020;-73
2021/06/03 08:18:07;;;;;;;8.98;6.80;;;;;9.20;100978.00;;;;5066565;28;20506;-70
2021/06/03 08:20:39;;;;;;;12.80;6.22;;;;;9.20;100988.00;;;;5066079;28;20663;-73
2021/06/03 08:23:08;;;;;;;8.85;6.40;;;;;9.30;100980.00;;;;5066169;28;20055;-71
2021/06/03 08:25:34;;;;;;;12.95;6.55;;;;;9.30;100977.00;;;;5066667;28;20035;-70
2021/06/03 08:28:01;;;;;;;11.27;6.63;;;;;9.30;100986.00;;;;5066522;28;20056;-70
2021/06/03 08:30:29;;;;;;;10.85;6.38;;;;;9.30;100995.00;;;;5066765;28;20036;-72
2021/06/03 08:32:57;;;;;;;13.25;7.65;;;;;9.40;101021.00;;;;5065636;28;20052;-71
2021/06/03 08:35:24;;;;;;;15.15;8.10;;;;;9.40;101012.00;;;;5065784;28;20025;-72
2021/06/03 08:37:56;;;;;;;18.23;11.68;;;;;9.50;100997.00;;;;5065825;28;20621;-70
2021/06/03 08:40:25;;;;;;;;;;;;;9.60;101030.00;;;;5066813;28;20056;-72
2021/06/03 08:42:54;;;;;;;13.30;9.88;;;;;9.60;101036.00;;;;5065299;28;19940;-72
2021/06/03 08:45:26;;;;;;;21.88;12.07;;;;;9.70;101031.00;;;;5066747;28;20032;-72
2021/06/03 08:47:54;;;;;;;14.57;9.25;;;;;9.50;101024.00;;;;5066220;28;20491;-73
2021/06/03 08:50:23;;;;;;;9.45;7.15;;;;;9.40;101045.00;;;;5065883;28;20036;-72
2021/06/03 08:52:52;;;;;;;12.35;7.88;;;;;9.20;101040.00;;;;5065575;28;20032;-73
2021/06/03 08:58:06;;;;;;;11.65;6.32;;;;;9.20;101040.00;;;;5066101;28;20082;-73
2021/06/03 09:00:34;;;;;;;12.43;6.00;;;;;9.10;101022.00;;;;5066644;28;20036;-70
2021/06/03 09:03:01;;;;;;;10.95;4.78;;;;;9.00;101035.00;;;;5065671;28;20016;-71
2021/06/03 09:05:28;;;;;;;7.93;5.63;;;;;8.90;101028.00;;;;5065629;28;20025;-71
2021/06/03 09:07:55;;;;;;;9.02;6.35;;;;;8.90;101054.00;;;;5065369;28;20020;-71
2021/06/03 09:10:38;;;;;;;9.32;5.95;;;;;8.90;101049.00;;;;5065531;28;20090;-71
2021/06/03 09:13:15;;;;;;;8.82;6.57;;;;;8.90;101052.00;;;;5066153;28;20515;-73
2021/06/03 09:15:54;;;;;;;10.13;6.03;;;;;9.00;101066.00;;;;5065760;28;20395;-70
2021/06/03 09:18:36;;;;;;;8.80;6.68;;;;;9.00;101058.00;;;;5065508;28;20044;-72
2021/06/03 09:21:20;;;;;;;7.72;6.30;;;;;8.90;101072.00;;;;5065476;28;20107;-72
2021/06/03 09:23:56;;;;;;;9.25;6.00;;;;;8.80;101070.00;;;;5065931;28;20046;-71
2021/06/03 09:26:24;;;;;;;11.40;6.15;;;;;8.90;101082.00;;;;5065634;28;20075;-72
2021/06/03 09:28:52;;;;;;;9.80;6.70;;;;;8.90;101061.00;;;;5064987;28;20053;-70
2021/06/03 09:31:29;;;;;;;10.45;8.15;;;;;8.90;101082.00;;;;5065589;28;20453;-72
2021/06/03 09:34:01;;;;;;;13.52;8.13;;;;;9.00;101094.00;;;;5064893;28;20918;-72
2021/06/03 09:36:34;;;;;;;14.52;9.13;;;;;8.90;101063.00;;;;5065330;28;20060;-71
2021/06/03 09:39:32;;;;;;;10.85;7.40;;;;;8.90;101087.00;;;;5065588;28;20028;-70
2021/06/03 09:42:07;;;;;;;15.95;11.68;;;;;8.90;101072.00;;;;5065477;28;20024;-70
2021/06/03 09:44:51;;;;;;;28.73;12.80;;;;;8.90;101084.00;;;;5065280;28;20074;-72
2021/06/03 09:47:20;;;;;;;29.75;13.00;;;;;8.90;101078.00;;;;5065081;28;20024;-72
2021/06/03 09:50:09;;;;;;;28.92;13.38;;;;;8.90;101086.00;;;;5065717;28;20025;-71
2021/06/03 09:52:38;;;;;;;27.27;14.82;;;;;8.90;101068.00;;;;5065193;28;20040;-72
2021/06/03 09:55:10;;;;;;;25.05;13.15;;;;;8.90;101065.00;;;;5065472;28;20028;-72
2021/06/03 09:57:38;;;;;;;;;;;;;8.80;101068.00;;;;5066274;28;20043;-72
2021/06/03 10:00:05;;;;;;;23.30;14.20;;;;;8.80;101071.00;;;;5065616;28;20313;-73
2021/06/03 10:02:36;;;;;;;25.80;15.20;;;;;8.80;101057.00;;;;5065718;28;20043;-72
2021/06/03 10:05:10;;;;;;;;;;;;;8.80;101075.00;;;;5066159;28;20804;-70
2021/06/03 10:07:36;;;;;;;22.58;15.45;;;;;8.80;101065.00;;;;5065117;28;19912;-72
2021/06/03 10:10:05;;;;;;;25.67;16.63;;;;;8.90;101062.00;;;;5064952;28;20039;-71
2021/06/03 10:12:46;;;;;;;26.90;18.55;;;;;8.90;101064.00;;;;5064590;28;20841;-70
2021/06/03 10:15:34;;;;;;;24.95;21.00;;;;;8.90;101044.00;;;;5064761;28;20137;-73
2021/06/03 10:18:10;;;;;;;29.00;16.40;;;;;8.90;101052.00;;;;5046542;28;20043;-72
2021/06/03 10:20:56;;;;;;;37.30;19.60;;;;;8.90;101049.00;;;;5064432;28;20735;-72
2021/06/03 10:23:28;;;;;;;32.13;20.02;;;;;9.00;101040.00;;;;5065644;28;20025;-71
2021/06/03 10:25:59;;;;;;;35.53;16.23;;;;;9.00;101031.00;;;;5064975;28;20388;-72
2021/06/03 10:28:26;;;;;;;;;;;;;9.00;101048.00;;;;5065291;28;20040;-72
2021/06/03 10:30:57;;;;;;;41.25;13.23;;;;;9.10;101056.00;;;;5064695;28;19951;-73
2021/06/03 10:33:30;;;;;;;60.03;16.75;;;;;9.10;101045.00;;;;5070152;28;20053;-71
2021/06/03 10:36:02;;;;;;;58.70;16.38;;;;;9.20;101050.00;;;;5068748;28;20760;-72
2021/06/03 10:38:28;;;;;;;30.40;21.05;;;;;9.40;101033.00;;;;5064927;28;20089;-72
2021/06/03 10:41:02;;;;;;;25.88;21.10;;;;;9.50;101041.00;;;;5064228;28;20541;-72
2021/06/03 10:43:32;;;;;;;31.27;22.35;;;;;9.60;101082.00;;;;5063364;28;20507;-73
2021/06/03 10:45:58;;;;;;;28.52;20.42;;;;;9.70;101078.00;;;;5063223;28;20827;-72
2021/06/03 10:48:25;;;;;;;130.93;30.92;;;;;9.90;101071.00;;;;5064861;28;20074;-72
2021/06/03 10:50:55;;;;;;;320.75;43.30;;;;;10.20;101073.00;;;;5064856;28;20089;-71
2021/06/03 10:53:28;;;;;;;365.50;35.30;;;;;10.30;101072.00;;;;5064587;28;20192;-72
2021/06/03 10:55:57;;;;;;;670.60;38.22;;;;;10.50;101065.00;;;;5065487;28;20028;-72
2021/06/03 10:58:45;;;;;;;325.80;27.17;;;;;10.70;101073.00;;;;5063985;28;20110;-73
2021/06/03 11:01:18;;;;;;;235.82;20.42;;;;;10.80;101074.00;;;;5063335;28;20757;-73
2021/06/03 11:03:57;;;;;;;328.25;20.13;;;;;11.00;101045.00;;;;5064220;28;20028;-72
2021/06/03 11:06:29;;;;;;;163.82;19.60;;;;;11.60;101006.00;;;;5064451;28;20020;-72
2021/06/03 11:09:01;;;;;;;167.63;17.05;;;;;12.30;101013.00;;;;5064103;28;20029;-73
2021/06/03 11:11:30;;;;;;;127.63;20.83;;;;;12.50;100993.00;;;;5064179;28;20071;-71
2021/06/03 11:14:14;;;;;;;75.53;16.65;;;;;13.90;100953.00;;;;5063713;28;20409;-72
2021/06/03 11:16:40;;;;;;;20.50;14.52;;;;;14.30;100958.00;;;;5064361;28;20020;-73
2021/06/03 11:19:12;;;;;;;23.27;13.07;;;;;15.70;100889.00;;;;5063728;28;20039;-73
2021/06/03 11:21:41;;;;;;;18.80;10.55;;;;;16.40;100898.00;;;;5064972;28;20131;-73
2021/06/03 11:24:34;;;;;;;13.90;11.15;;;;;18.00;100897.00;;;;5064454;28;20028;-74
2021/06/03 11:27:04;;;;;;;13.48;8.38;;;;;17.60;100901.00;;;;5063987;28;20051;-72
2021/06/03 11:29:36;;;;;;;16.27;8.32;;;;;18.40;100863.00;;;;5064351;28;20044;-74
2021/06/03 11:32:08;;;;;;;13.27;7.15;;;;;19.00;100888.00;;;;5063812;28;20072;-72
2021/06/03 11:34:41;;;;;;;9.15;6.68;;;;;19.80;100917.00;;;;5063580;28;20509;-72
2021/06/03 11:37:12;;;;;;;13.45;7.18;;;;;20.20;100922.00;;;;5063903;28;20052;-73
2021/06/03 11:39:53;;;;;;;14.18;7.38;;;;;21.20;100934.00;;;;5064073;28;20028;-75
2021/06/03 11:42:25;;;;;;;15.55;8.00;;;;;21.20;100948.00;;;;5064699;28;20752;-74
2021/06/03 11:45:15;;;;;;;9.90;7.13;;;;;21.30;100950.00;;;;5064178;28;20583;-73
2021/06/03 11:47:43;;;;;;;14.23;8.40;;;;;20.90;100935.00;;;;5063510;28;20033;-70
2021/06/03 11:50:17;;;;;;;16.38;7.82;;;;;21.60;100938.00;;;;5062764;28;20033;-74
2021/06/03 11:52:56;;;;;;;14.27;7.40;;;;;22.10;100955.00;;;;5063515;28;20035;-72
2021/06/03 11:55:33;;;;;;;10.45;7.20;;;;;22.10;100971.00;;;;5063426;28;20123;-71
2021/06/03 11:58:20;;;;;;;11.85;8.05;;;;;23.00;100979.00;;;;5064114;28;20051;-72
2021/06/03 12:00:48;;;;;;;9.80;7.30;;;;;22.60;101015.00;;;;5066804;28;20032;-74
2021/06/03 12:03:34;;;;;;;13.23;7.03;;;;;23.20;101035.00;;;;5066950;28;20032;-72
2021/06/03 12:06:09;;;;;;;13.38;7.53;;;;;23.40;101034.00;;;;5065527;28;20403;-73
2021/06/03 12:08:40;;;;;;;13.00;7.30;;;;;23.40;100991.00;;;;5065394;28;20024;-74
2021/06/03 12:11:09;;;;;;;15.18;7.28;;;;;23.50;100972.00;;;;5066309;28;20028;-72
2021/06/03 12:13:36;;;;;;;16.15;7.07;;;;;23.50;101012.00;;;;5048686;28;20105;-74
2021/06/03 12:16:03;;;;;;;10.60;6.85;;;;;23.40;101017.00;;;;5066107;28;20568;-74
2021/06/03 12:18:38;;;;;;;10.40;6.82;;;;;24.10;101005.00;;;;5066862;28;20036;-71
2021/06/03 12:21:07;;;;;;;10.88;6.57;;;;;24.80;101044.00;;;;5068146;28;20504;-72
2021/06/03 12:23:34;;;;;;;8.65;6.38;;;;;25.10;101086.00;;;;5068598;28;20082;-70